HUT - Hutchinson Rgnl

Pirep is a free, collaborative database of all public and private airports located within the United States. All pilots are welcome to contribute, edit, and improve any airport they have local knowledge about, no registration required.
Uploaded photos will be licensed under a CC BY-SA 4.0 license. Please only upload photos you have the rights to use.
Tags
Public
Food
METAR / TAF
Edit Tags
Camping
Lodging
Car Rental
Bicycles
Swimming
Golfing
Fishing
Hot Springs
Museum
Flying Clubs
Airpark
Upcoming Events
No upcoming events. Is anything happening here soon?
*
*
*

Where exactly on/near the airport is this event taking place?

Is there a webpage with more information for this event?

Who should be contacted for more information?

What is this event all about?

Repeat every
Description
Transient Parking
Fuel Location
Landing & Tie-down Fees
Crew Car Availability
Flying Clubs
WiFi Access
Airport Statistics
Location: Hutchinson, KS
Elevation: 1,542ft
Sectional: Wichita
Activation date: Apr 1940
Fuel: 100LL, A (prices)
Runway 13/31: 7,003ft
Runway 04/22: 4,405ft
Runway 17/35: 4,012ft
Access: Open to the public
Current Weather — VFR
  • Weather data is strictly informational and not for flight planning purposes.
  • METAR
    2024-05-29 12:52:00 CDT
    Ceiling Wind Temperature Dewpoint Weather Visbility
    5,500ft 150° @ 12kt 78°F 60°F N/A 10SM
    Clouds: Scattered @ 4,200ft, Broken @ 5,500ft
    Raw: KHUT 291752Z 15012KT 10SM SCT042 BKN055 26/16 A3012 RMK AO2 SLP184 T02610161 10272 20128 58012
  • TAF
    2024-05-29 13:00:00 CDT – 2024-05-30 13:00:00 CDT
    Ceiling Wind Weather Visbility
    Sky clear 150° @ 10kt N/A 6SM
    Clouds: Scattered @ 5,000ft
    Raw: KHUT 291729Z 2918/3018 15010KT P6SM SCT050 PROB30 3011/3015 5SM -TSRA FEW015 BKN100CB
  • TAF
    2024-05-30 06:00:00 CDT – 2024-05-30 10:00:00 CDT
    Ceiling Wind Weather Visbility
    10,000ft ° @ kt Light thunderstorm rain 5SM
    Clouds: Few @ 1,500ft, Broken @ 10,000ft
    Raw: KHUT 291729Z 2918/3018 15010KT P6SM SCT050 PROB30 3011/3015 5SM -TSRA FEW015 BKN100CB
Click/tap to add an annotation marker to the map
Airport Webcams
No webcams added yet.
Direct links to live image URLs will be displayed inline on this page. URLs to separate webpages will be linked to.
URL:
Direct links to live image URLs will be displayed inline on this page. URLs to separate webpages will be linked to.
URL:
Remarks
  • Migratory birds on & invof arpt.
  • Crossing rys used for taxiing to and from active rys.
  • Arpt sfc cond unmon fm 0300z-1100z
  • For cd ctc wichita apch at 316-350-1520.
  • Twy b3 dsgnd as a non-movement area.
Comments
Leave a comment What was your experience like at this airport?